createdAt,value
2018-03-27T00:02:21.833Z,46.60
2018-03-27T00:04:49.430Z,46.97
2018-03-27T00:07:17.029Z,46.33
2018-03-27T00:09:44.841Z,47.90
2018-03-27T00:12:12.436Z,46.70
2018-03-27T00:14:40.040Z,44.20
2018-03-27T00:17:07.895Z,42.63
2018-03-27T00:19:35.494Z,43.80
2018-03-27T00:22:03.102Z,40.87
2018-03-27T00:24:46.486Z,39.93
2018-03-27T00:27:13.820Z,42.10
2018-03-27T00:29:53.186Z,42.80
2018-03-27T00:32:32.738Z,46.53
2018-03-27T00:35:12.117Z,47.63
2018-03-27T00:37:51.761Z,48.80
2018-03-27T00:40:31.317Z,47.17
2018-03-27T00:43:03.050Z,44.10
2018-03-27T00:45:30.658Z,46.67
2018-03-27T00:47:58.486Z,45.57
2018-03-27T00:50:26.089Z,44.67
2018-03-27T00:52:53.674Z,44.50
2018-03-27T00:55:21.441Z,45.27
2018-03-27T00:57:49.025Z,44.90
2018-03-27T01:00:16.739Z,46.40
2018-03-27T01:02:44.494Z,46.07
2018-03-27T01:05:12.095Z,47.00
2018-03-27T01:07:39.694Z,48.10
2018-03-27T01:10:07.448Z,44.93
2018-03-27T01:12:35.267Z,45.50
2018-03-27T01:15:03.085Z,45.97
2018-03-27T01:17:30.903Z,43.37
2018-03-27T01:19:58.502Z,44.37
2018-03-27T01:22:26.132Z,45.87
2018-03-27T01:24:53.750Z,44.17
2018-03-27T01:27:21.578Z,42.63
2018-03-27T01:29:49.395Z,42.40
2018-03-27T01:32:17.212Z,43.40
2018-03-27T01:34:45.032Z,41.80
2018-03-27T01:37:12.626Z,43.23
2018-03-27T01:39:40.220Z,44.23
2018-03-27T01:42:07.820Z,42.23
2018-03-27T01:44:35.406Z,40.50
2018-03-27T01:47:03.001Z,41.43
2018-03-27T01:49:30.739Z,39.00
2018-03-27T01:51:58.394Z,39.63
2018-03-27T01:54:25.978Z,37.97
2018-03-27T01:56:53.566Z,36.23
2018-03-27T01:59:21.416Z,39.43
2018-03-27T02:01:49.019Z,35.97
2018-03-27T02:04:16.850Z,34.27
2018-03-27T02:06:44.434Z,31.93
2018-03-27T02:09:12.219Z,30.83
2018-03-27T02:11:45.485Z,29.97
2018-03-27T02:14:18.774Z,30.13
2018-03-27T02:16:51.765Z,29.70
2018-03-27T02:19:25.140Z,26.47
2018-03-27T02:21:52.322Z,27.23
2018-03-27T02:24:21.954Z,28.43
2018-03-27T02:26:49.707Z,27.10
2018-03-27T02:29:17.510Z,26.50
2018-03-27T02:31:45.110Z,34.43
2018-03-27T02:34:12.698Z,36.63
2018-03-27T02:36:40.308Z,35.63
2018-03-27T02:39:07.903Z,36.07
2018-03-27T02:41:35.700Z,34.90
2018-03-27T02:44:03.319Z,29.77
2018-03-27T02:46:30.937Z,29.00
2018-03-27T02:48:58.534Z,29.17
2018-03-27T02:51:26.372Z,30.47
2018-03-27T02:53:54.018Z,38.33
2018-03-27T02:56:21.775Z,38.17
2018-03-27T02:58:49.727Z,37.03
2018-03-27T03:01:17.358Z,38.00
2018-03-27T03:03:45.010Z,35.20
2018-03-27T03:06:12.609Z,35.03
2018-03-27T03:08:40.198Z,37.73
2018-03-27T03:11:08.017Z,34.53
2018-03-27T03:13:35.606Z,35.17
2018-03-27T03:16:03.266Z,33.30
2018-03-27T03:18:30.850Z,32.53
2018-03-27T03:20:58.444Z,34.60
2018-03-27T03:23:26.124Z,38.77
2018-03-27T03:25:53.924Z,37.40
2018-03-27T03:28:21.524Z,36.70
2018-03-27T03:30:49.118Z,35.03
2018-03-27T03:33:16.979Z,37.67
2018-03-27T03:35:44.797Z,37.40
2018-03-27T03:38:12.393Z,41.63
2018-03-27T03:40:39.985Z,40.60
2018-03-27T03:43:07.751Z,42.40
2018-03-27T03:45:35.346Z,33.73
2018-03-27T03:48:02.931Z,32.43
2018-03-27T03:50:30.782Z,56.90
2018-03-27T03:52:58.599Z,37.47
2018-03-27T03:55:26.182Z,39.27
2018-03-27T03:57:53.774Z,40.77
2018-03-27T04:00:21.377Z,35.60
2018-03-27T04:02:48.970Z,37.33
2018-03-27T04:05:16.597Z,45.10
2018-03-27T04:07:44.237Z,49.00
2018-03-27T04:10:12.012Z,47.30
2018-03-27T04:12:39.606Z,45.93
2018-03-27T04:15:07.238Z,42.27
2018-03-27T04:17:34.819Z,42.17
2018-03-27T04:20:02.418Z,44.40
2018-03-27T04:22:30.244Z,48.80
2018-03-27T04:24:57.899Z,50.67
2018-03-27T04:27:25.482Z,50.93
2018-03-27T04:29:53.076Z,49.43
2018-03-27T04:32:20.685Z,44.43
2018-03-27T04:34:48.280Z,41.97
2018-03-27T04:37:15.887Z,39.60
2018-03-27T04:39:43.632Z,38.87
2018-03-27T04:42:11.272Z,36.03
2018-03-27T04:44:38.867Z,37.03
2018-03-27T04:47:06.617Z,37.60
2018-03-27T04:49:34.436Z,35.10
2018-03-27T04:52:02.018Z,34.27
2018-03-27T04:54:29.616Z,35.40
2018-03-27T04:56:57.391Z,35.43
2018-03-27T04:59:25.046Z,38.10
2018-03-27T05:01:52.804Z,36.23
2018-03-27T05:04:20.442Z,38.67
2018-03-27T05:06:48.038Z,39.40
2018-03-27T05:09:15.619Z,44.23
2018-03-27T05:11:43.210Z,39.30
2018-03-27T05:14:10.793Z,40.80
2018-03-27T05:16:38.633Z,40.07
2018-03-27T05:19:06.219Z,39.30
2018-03-27T05:21:33.856Z,40.03
2018-03-27T05:24:01.688Z,40.37
2018-03-27T05:26:29.493Z,36.43
2018-03-27T05:28:57.089Z,39.27
2018-03-27T05:31:24.706Z,35.93
2018-03-27T05:33:52.362Z,36.47
2018-03-27T05:36:19.946Z,35.83
2018-03-27T05:38:47.696Z,37.53
2018-03-27T05:41:15.518Z,38.70
2018-03-27T05:43:43.334Z,64.53
2018-03-27T05:46:11.141Z,65.13
2018-03-27T05:48:38.969Z,55.27
2018-03-27T05:51:06.619Z,35.90
2018-03-27T05:53:34.218Z,35.50
2018-03-27T05:56:02.041Z,33.13
2018-03-27T05:58:29.643Z,36.17
2018-03-27T06:00:57.462Z,33.17
2018-03-27T06:03:25.061Z,32.40
2018-03-27T06:05:52.942Z,36.40
2018-03-27T06:08:20.594Z,34.70
2018-03-27T06:10:48.409Z,30.53
2018-03-27T06:13:16.224Z,33.37
2018-03-27T06:15:43.879Z,33.90
2018-03-27T06:18:11.470Z,30.47
2018-03-27T06:20:39.102Z,31.27
2018-03-27T06:23:06.690Z,31.93
2018-03-27T06:25:34.351Z,32.53
2018-03-27T06:28:02.160Z,33.43
2018-03-27T06:30:29.800Z,34.80
2018-03-27T06:33:00.707Z,34.97
2018-03-27T06:35:28.965Z,37.37
2018-03-27T06:37:56.558Z,36.50
2018-03-27T06:40:24.815Z,35.90
2018-03-27T06:42:53.323Z,34.00
2018-03-27T06:45:20.914Z,34.57
2018-03-27T06:47:48.731Z,31.87
2018-03-27T06:50:16.541Z,34.83
2018-03-27T06:52:44.136Z,41.17
2018-03-27T06:55:11.731Z,37.73
2018-03-27T06:57:39.322Z,35.93
2018-03-27T07:00:07.008Z,33.67
2018-03-27T07:02:34.750Z,36.93
2018-03-27T07:05:02.342Z,36.60
2018-03-27T07:07:29.935Z,35.67
2018-03-27T07:09:57.684Z,35.47
2018-03-27T07:12:25.512Z,34.27
2018-03-27T07:14:54.484Z,33.93
2018-03-27T07:17:22.270Z,34.70
2018-03-27T07:19:50.002Z,34.40
2018-03-27T07:22:17.669Z,36.13
2018-03-27T07:24:45.501Z,36.07
2018-03-27T07:27:13.081Z,38.80
2018-03-27T07:29:40.726Z,36.83
2018-03-27T07:32:08.302Z,35.50
2018-03-27T07:34:36.171Z,35.20
2018-03-27T07:37:03.832Z,34.17
2018-03-27T07:39:31.414Z,35.93
2018-03-27T07:41:59.005Z,36.40
2018-03-27T07:44:26.585Z,34.77
2018-03-27T07:46:54.462Z,32.80
2018-03-27T07:49:22.158Z,33.93
2018-03-27T07:51:49.746Z,33.03
2018-03-27T07:54:17.519Z,33.80
2018-03-27T07:56:45.107Z,35.60
2018-03-27T07:59:12.952Z,34.07
2018-03-27T08:01:40.561Z,32.70
2018-03-27T08:04:08.210Z,34.50
2018-03-27T08:06:35.804Z,36.53
2018-03-27T08:09:03.723Z,36.83
2018-03-27T08:11:31.327Z,32.57
2018-03-27T08:13:58.941Z,53.07
2018-03-27T08:16:26.542Z,32.70
2018-03-27T08:18:54.140Z,30.47
2018-03-27T08:21:22.013Z,30.63
2018-03-27T08:23:49.831Z,35.57
2018-03-27T08:26:17.414Z,41.73
2018-03-27T08:28:45.005Z,40.03
2018-03-27T08:31:12.785Z,34.03
2018-03-27T08:33:40.604Z,34.33
2018-03-27T08:36:08.213Z,35.80
2018-03-27T08:38:35.842Z,38.40
2018-03-27T08:41:03.490Z,39.10
2018-03-27T08:43:31.119Z,33.27
2018-03-27T08:45:58.785Z,32.27
2018-03-27T08:48:26.612Z,33.20
2018-03-27T08:50:54.430Z,33.90
2018-03-27T08:53:22.250Z,31.93
2018-03-27T08:55:50.027Z,44.60
2018-03-27T08:58:17.627Z,36.50
2018-03-27T09:00:45.215Z,34.17
2018-03-27T09:03:13.003Z,32.07
2018-03-27T09:05:40.840Z,33.47
2018-03-27T09:08:08.450Z,29.07
2018-03-27T09:10:36.255Z,30.13
2018-03-27T09:13:04.096Z,31.47
2018-03-27T09:15:31.718Z,32.87
2018-03-27T09:17:59.306Z,27.93
2018-03-27T09:20:27.026Z,31.80
2018-03-27T09:22:54.866Z,27.20
2018-03-27T09:25:22.686Z,27.30
2018-03-27T09:27:50.302Z,26.80
2018-03-27T09:30:18.122Z,26.13
2018-03-27T09:32:45.723Z,21.53
2018-03-27T09:35:13.566Z,22.57
2018-03-27T09:37:41.163Z,27.13
2018-03-27T09:40:08.758Z,19.07
2018-03-27T09:42:36.613Z,23.90
2018-03-27T09:45:04.230Z,22.03
2018-03-27T09:47:31.964Z,21.70
2018-03-27T09:49:59.767Z,24.87
2018-03-27T09:52:27.358Z,25.23
2018-03-27T09:54:55.005Z,21.60
2018-03-27T09:57:22.813Z,19.87
2018-03-27T09:59:50.641Z,20.23
2018-03-27T10:02:18.239Z,18.77
2018-03-27T10:04:45.817Z,21.23
2018-03-27T10:07:13.455Z,28.23
2018-03-27T10:09:41.212Z,20.30
2018-03-27T10:12:08.797Z,62.33
2018-03-27T10:14:36.648Z,39.40
2018-03-27T10:17:04.233Z,27.60
2018-03-27T10:19:31.975Z,26.67
2018-03-27T10:21:59.582Z,21.57
2018-03-27T10:24:27.174Z,30.63
2018-03-27T10:26:54.801Z,21.63
2018-03-27T10:29:22.378Z,18.17
2018-03-27T10:31:49.974Z,20.77
2018-03-27T10:34:17.658Z,28.20
2018-03-27T10:36:45.299Z,23.77
2018-03-27T10:39:13.238Z,19.80
2018-03-27T10:41:41.006Z,22.37
2018-03-27T10:44:08.609Z,25.13
2018-03-27T10:46:36.386Z,59.03
2018-03-27T10:49:03.999Z,20.63
2018-03-27T10:51:31.612Z,18.77
2018-03-27T10:53:59.261Z,14.23
2018-03-27T10:56:27.055Z,17.37
2018-03-27T10:58:54.650Z,15.33
2018-03-27T11:01:22.380Z,38.60
2018-03-27T11:03:49.960Z,14.17
2018-03-27T11:06:17.558Z,37.43
2018-03-27T11:08:45.316Z,44.03
2018-03-27T11:11:13.162Z,45.53
2018-03-27T11:13:40.981Z,27.63
2018-03-27T11:16:08.614Z,15.70
2018-03-27T11:18:36.198Z,15.23
2018-03-27T11:21:04.036Z,11.63
2018-03-27T11:23:31.652Z,11.77
2018-03-27T11:25:59.256Z,13.57
2018-03-27T11:28:26.856Z,12.67
2018-03-27T11:30:54.464Z,28.53
2018-03-27T11:33:22.225Z,25.70
2018-03-27T11:35:49.960Z,17.27
2018-03-27T11:38:17.607Z,13.30
2018-03-27T11:40:45.188Z,15.67
2018-03-27T11:43:12.998Z,11.03
2018-03-27T11:45:40.815Z,12.90
2018-03-27T11:48:08.410Z,9.27
2018-03-27T11:50:36.006Z,9.20
2018-03-27T11:53:03.654Z,10.00
2018-03-27T11:55:31.497Z,12.57
2018-03-27T11:57:59.406Z,14.27
2018-03-27T12:00:27.226Z,53.87
2018-03-27T12:02:54.833Z,25.40
2018-03-27T12:05:22.415Z,8.60
2018-03-27T12:07:50.178Z,14.33
2018-03-27T12:10:17.998Z,13.27
2018-03-27T12:12:45.815Z,18.00
2018-03-27T12:15:13.475Z,12.87
2018-03-27T12:17:41.265Z,9.33
2018-03-27T12:20:08.862Z,7.80
2018-03-27T12:22:36.689Z,8.57
2018-03-27T12:25:04.351Z,12.27
2018-03-27T12:27:31.954Z,27.90
2018-03-27T12:29:59.550Z,23.10
2018-03-27T12:32:27.362Z,12.77
2018-03-27T12:34:54.998Z,23.07
2018-03-27T12:37:22.558Z,12.97
2018-03-27T12:39:50.391Z,14.70
2018-03-27T12:42:17.956Z,18.00
2018-03-27T12:44:45.751Z,12.17
2018-03-27T12:47:13.565Z,7.97
2018-03-27T12:49:41.256Z,28.90
2018-03-27T12:52:08.977Z,86.23
2018-03-27T12:54:36.689Z,16.03
2018-03-27T12:57:04.295Z,8.73
2018-03-27T12:59:31.947Z,7.87
2018-03-27T13:01:59.505Z,11.60
2018-03-27T13:04:27.070Z,34.47
2018-03-27T13:06:54.682Z,17.57
2018-03-27T13:09:22.430Z,28.20
2018-03-27T13:11:50.324Z,12.53
2018-03-27T13:14:17.939Z,11.33
2018-03-27T13:16:45.622Z,9.87
2018-03-27T13:19:13.215Z,11.00
2018-03-27T13:21:41.022Z,19.23
2018-03-27T13:24:08.614Z,14.50
2018-03-27T13:26:36.275Z,25.10
2018-03-27T13:29:03.933Z,11.10
2018-03-27T13:31:31.651Z,11.27
2018-03-27T13:33:59.412Z,9.10
2018-03-27T13:36:27.133Z,18.87
2018-03-27T13:38:55.398Z,12.17
2018-03-27T13:41:23.168Z,12.20
2018-03-27T13:43:50.730Z,12.73
2018-03-27T13:46:18.286Z,11.87
2018-03-27T13:48:46.123Z,14.27
2018-03-27T13:51:13.698Z,14.63
2018-03-27T13:53:41.258Z,16.30
2018-03-27T13:56:08.851Z,18.33
2018-03-27T13:58:36.410Z,31.77
2018-03-27T14:01:04.281Z,26.00
2018-03-27T14:03:31.838Z,16.93
2018-03-27T14:05:59.748Z,33.63
2018-03-27T14:08:27.315Z,42.37
2018-03-27T14:10:55.087Z,24.17
2018-03-27T14:13:22.650Z,30.07
2018-03-27T14:15:50.421Z,64.67
2018-03-27T14:18:19.144Z,36.60
2018-03-27T14:20:46.960Z,33.53
2018-03-27T14:23:14.589Z,40.10
2018-03-27T14:25:42.282Z,46.23
2018-03-27T14:28:09.842Z,70.53
2018-03-27T14:30:37.635Z,33.43
2018-03-27T14:33:05.451Z,30.57
2018-03-27T14:35:33.294Z,28.50
2018-03-27T14:38:01.088Z,41.93
2018-03-27T14:40:28.914Z,88.77
2018-03-27T14:42:56.478Z,22.70
2018-03-27T14:45:24.061Z,77.03
2018-03-27T14:47:51.631Z,53.00
2018-03-27T14:50:19.378Z,98.13
2018-03-27T14:52:47.297Z,78.67
2018-03-27T14:55:15.005Z,54.73
2018-03-27T14:57:42.574Z,95.00
2018-03-27T15:00:10.150Z,26.60
2018-03-27T15:02:37.730Z,29.03
2018-03-27T15:05:05.310Z,38.30
2018-03-27T15:07:32.881Z,25.17
2018-03-27T15:10:00.502Z,26.03
2018-03-27T15:12:28.069Z,34.80
2018-03-27T15:14:55.636Z,40.77
2018-03-27T15:17:23.207Z,51.63
2018-03-27T15:19:51.001Z,39.70
2018-03-27T15:22:18.702Z,42.93
2018-03-27T15:24:46.279Z,33.53
2018-03-27T15:27:14.128Z,33.13
2018-03-27T15:29:41.695Z,24.03
2018-03-27T15:32:09.482Z,25.40
2018-03-27T15:34:37.041Z,20.80
2018-03-27T15:37:04.622Z,22.80
2018-03-27T15:39:32.214Z,23.17
2018-03-27T15:41:59.774Z,24.23
2018-03-27T15:44:27.571Z,25.67
2018-03-27T15:46:55.134Z,41.43
2018-03-27T15:49:22.910Z,39.17
2018-03-27T15:51:50.479Z,48.37
2018-03-27T15:54:18.126Z,30.87
2018-03-27T15:56:45.709Z,36.03
2018-03-27T15:59:13.285Z,37.13
2018-03-27T16:01:40.901Z,32.73
2018-03-27T16:04:08.467Z,59.43
2018-03-27T16:06:36.033Z,60.07
2018-03-27T16:09:03.706Z,64.47
2018-03-27T16:11:31.278Z,54.13
2018-03-27T16:13:59.102Z,82.00
2018-03-27T16:16:26.905Z,63.03
2018-03-27T16:18:54.723Z,120.67
2018-03-27T16:21:22.433Z,113.53
2018-03-27T16:23:50.007Z,105.23
2018-03-27T16:26:17.737Z,111.17
2018-03-27T16:28:45.463Z,85.80
2018-03-27T16:31:13.066Z,83.13
2018-03-27T16:33:40.665Z,89.40
2018-03-27T16:36:08.293Z,100.10
2018-03-27T16:38:36.021Z,64.03
2018-03-27T16:41:03.593Z,46.93
2018-03-27T16:43:31.182Z,52.57
2018-03-27T16:45:58.903Z,57.17
2018-03-27T16:48:26.619Z,50.63
2018-03-27T16:50:54.335Z,50.30
2018-03-27T16:53:21.950Z,50.00
2018-03-27T16:55:49.694Z,62.83
2018-03-27T16:58:17.302Z,63.83
2018-03-27T17:00:44.930Z,81.93
2018-03-27T17:03:12.497Z,82.30
2018-03-27T17:05:40.078Z,97.10
2018-03-27T17:08:07.883Z,124.13
2018-03-27T17:10:35.586Z,119.70
2018-03-27T17:13:03.150Z,118.47
2018-03-27T17:15:30.829Z,113.00
2018-03-27T17:17:58.655Z,92.07
2018-03-27T17:20:26.222Z,99.23
2018-03-27T17:22:53.839Z,58.27
2018-03-27T17:25:21.610Z,59.80
2018-03-27T17:27:49.188Z,53.27
2018-03-27T17:30:16.925Z,57.80
2018-03-27T17:32:44.638Z,61.10
2018-03-27T17:35:12.482Z,52.23
2018-03-27T17:37:40.052Z,39.73
2018-03-27T17:40:07.610Z,44.20
2018-03-27T17:42:35.192Z,51.87
2018-03-27T17:45:02.753Z,53.97
2018-03-27T17:47:30.572Z,54.93
2018-03-27T17:49:58.270Z,61.33
2018-03-27T17:52:26.107Z,61.43
2018-03-27T17:54:53.674Z,55.93
2018-03-27T17:57:21.238Z,58.57
2018-03-27T17:59:49.061Z,53.80
2018-03-27T18:02:16.671Z,54.90
2018-03-27T18:04:44.238Z,57.67
2018-03-27T18:07:11.859Z,61.93
2018-03-27T18:09:39.503Z,72.93
2018-03-27T18:12:07.251Z,116.60
2018-03-27T18:14:35.070Z,76.60
2018-03-27T18:17:02.888Z,65.67
2018-03-27T18:19:30.497Z,67.03
2018-03-27T18:21:58.078Z,70.13
2018-03-27T18:24:25.810Z,82.60
2018-03-27T18:26:53.453Z,99.00
2018-03-27T18:29:21.151Z,130.43
2018-03-27T18:31:48.718Z,90.90
2018-03-27T18:34:16.294Z,75.60
2018-03-27T18:36:43.862Z,75.97
2018-03-27T18:39:11.458Z,77.87
2018-03-27T18:41:39.061Z,82.47
2018-03-27T18:44:06.771Z,71.70
2018-03-27T18:46:34.342Z,68.97
2018-03-27T18:49:01.907Z,70.93
2018-03-27T18:51:29.484Z,71.93
2018-03-27T18:53:57.230Z,80.50
2018-03-27T18:56:24.820Z,100.63
2018-03-27T18:58:52.400Z,88.00
2018-03-27T19:01:20.097Z,85.97
2018-03-27T19:03:47.666Z,93.83
2018-03-27T19:06:15.238Z,91.97
2018-03-27T19:08:42.817Z,161.83
2018-03-27T19:11:10.586Z,116.33
2018-03-27T19:13:38.170Z,100.20
2018-03-27T19:16:06.018Z,108.60
2018-03-27T19:18:33.642Z,80.80
2018-03-27T19:21:01.453Z,75.37
2018-03-27T19:23:29.021Z,83.20
2018-03-27T19:25:56.792Z,87.53
2018-03-27T19:28:24.375Z,114.93
2018-03-27T19:30:52.225Z,189.17
2018-03-27T19:33:19.791Z,157.47
2018-03-27T19:35:47.662Z,178.43
2018-03-27T19:38:15.225Z,150.83
2018-03-27T19:40:42.964Z,139.70
2018-03-27T19:43:10.601Z,119.20
2018-03-27T19:45:38.167Z,88.87
2018-03-27T19:48:05.770Z,87.37
2018-03-27T19:50:33.569Z,88.20
2018-03-27T19:53:01.394Z,92.47
2018-03-27T19:55:29.188Z,89.97
2018-03-27T19:57:56.903Z,83.97
2018-03-27T20:00:24.482Z,191.90
2018-03-27T20:02:52.265Z,201.00
2018-03-27T20:05:20.573Z,166.13
2018-03-27T20:07:48.501Z,148.20
2018-03-27T20:10:16.319Z,120.93
2018-03-27T20:12:44.136Z,130.70
2018-03-27T20:15:11.956Z,94.37
2018-03-27T20:17:39.778Z,98.57
2018-03-27T20:20:07.342Z,98.43
2018-03-27T20:22:35.058Z,106.90
2018-03-27T20:25:02.622Z,88.80
2018-03-27T20:27:30.238Z,84.23
2018-03-27T20:29:57.811Z,77.17
2018-03-27T20:32:25.392Z,78.17
2018-03-27T20:34:53.722Z,76.80
2018-03-27T20:37:21.725Z,89.83
2018-03-27T20:39:49.816Z,122.47
2018-03-27T20:42:17.410Z,119.00
2018-03-27T20:44:45.046Z,119.57
2018-03-27T20:47:12.754Z,113.17
2018-03-27T20:49:40.474Z,110.53
2018-03-27T20:52:08.063Z,163.60
2018-03-27T20:54:35.635Z,168.50
2018-03-27T20:57:03.226Z,128.50
2018-03-27T20:59:30.961Z,95.67
2018-03-27T21:01:58.720Z,90.50
2018-03-27T21:04:26.519Z,124.80
2018-03-27T21:06:54.085Z,115.50
2018-03-27T21:09:21.663Z,114.10
2018-03-27T21:11:49.233Z,107.93
2018-03-27T21:14:16.958Z,108.30
2018-03-27T21:16:44.674Z,103.30
2018-03-27T21:19:12.295Z,98.30
2018-03-27T21:21:39.877Z,73.07
2018-03-27T21:24:07.483Z,65.70
2018-03-27T21:26:35.045Z,56.30
2018-03-27T21:29:02.636Z,59.23
2018-03-27T21:31:30.211Z,57.37
2018-03-27T21:33:57.824Z,59.30
2018-03-27T21:36:25.390Z,57.37
2018-03-27T21:38:52.953Z,58.43
2018-03-27T21:41:20.519Z,60.53
2018-03-27T21:43:48.090Z,66.87
2018-03-27T21:46:15.673Z,70.20
2018-03-27T21:48:43.298Z,60.63
2018-03-27T21:51:10.866Z,78.00
2018-03-27T21:53:38.430Z,76.63
2018-03-27T21:56:06.006Z,87.87
2018-03-27T21:58:33.573Z,114.03
2018-03-27T22:01:01.148Z,109.67
2018-03-27T22:03:41.536Z,95.40
2018-03-27T22:06:09.300Z,104.13
2018-03-27T22:08:36.866Z,104.53
2018-03-27T22:11:04.454Z,67.60
2018-03-27T22:13:32.032Z,58.73
2018-03-27T22:15:59.780Z,50.40
2018-03-27T22:18:27.346Z,39.50
2018-03-27T22:20:54.945Z,45.60
2018-03-27T22:23:22.554Z,42.83
2018-03-27T22:25:50.119Z,39.77
2018-03-27T22:28:17.759Z,35.57
2018-03-27T22:30:45.341Z,50.97
2018-03-27T22:33:12.996Z,48.20
2018-03-27T22:35:40.558Z,45.47
2018-03-27T22:38:08.113Z,51.03
2018-03-27T22:40:35.736Z,54.37
2018-03-27T22:43:03.443Z,67.33
2018-03-27T22:45:31.013Z,67.77
2018-03-27T22:47:58.689Z,66.37
2018-03-27T22:50:26.392Z,57.47
2018-03-27T22:52:53.953Z,68.03
2018-03-27T22:55:21.523Z,38.37
2018-03-27T22:57:49.138Z,58.30
2018-03-27T23:00:21.699Z,98.53
2018-03-27T23:02:49.398Z,122.97
2018-03-27T23:05:16.970Z,74.20
2018-03-27T23:07:44.526Z,52.90
2018-03-27T23:10:12.098Z,67.37
2018-03-27T23:12:39.656Z,66.50
2018-03-27T23:15:07.525Z,58.13
2018-03-27T23:17:35.089Z,71.17
2018-03-27T23:20:02.660Z,91.47
2018-03-27T23:22:33.058Z,58.03
2018-03-27T23:25:00.776Z,61.10
2018-03-27T23:27:28.524Z,61.37
2018-03-27T23:29:56.243Z,93.93
2018-03-27T23:32:24.061Z,109.73
2018-03-27T23:34:51.662Z,90.53
2018-03-27T23:37:19.222Z,59.90
2018-03-27T23:39:47.014Z,58.00
2018-03-27T23:42:14.833Z,66.93
2018-03-27T23:44:42.405Z,127.73
2018-03-27T23:47:10.173Z,67.13
2018-03-27T23:49:37.782Z,53.13
2018-03-27T23:52:05.458Z,77.70
2018-03-27T23:54:33.224Z,87.13
2018-03-27T23:57:00.790Z,49.83
2018-03-27T23:59:28.347Z,69.37
